sensor_id;sensor_type;location;lat;lon;timestamp;P1;durP1;ratioP1;P2;durP2;ratioP2
1106;SDS011;540;49.448;8.612;2023-09-30T00:00:15;7.60;;;2.95;;
1106;SDS011;540;49.448;8.612;2023-09-30T00:02:43;5.68;;;2.63;;
1106;SDS011;540;49.448;8.612;2023-09-30T00:05:11;6.55;;;2.60;;
1106;SDS011;540;49.448;8.612;2023-09-30T00:07:41;8.23;;;3.00;;
1106;SDS011;540;49.448;8.612;2023-09-30T00:10:08;6.28;;;2.75;;
1106;SDS011;540;49.448;8.612;2023-09-30T00:12:38;5.85;;;2.90;;
1106;SDS011;540;49.448;8.612;2023-09-30T00:15:06;5.15;;;2.75;;
1106;SDS011;540;49.448;8.612;2023-09-30T00:17:34;9.23;;;3.42;;
1106;SDS011;540;49.448;8.612;2023-09-30T00:20:02;20.90;;;3.25;;
1106;SDS011;540;49.448;8.612;2023-09-30T00:22:31;8.40;;;3.50;;
1106;SDS011;540;49.448;8.612;2023-09-30T00:24:59;4.82;;;2.83;;
1106;SDS011;540;49.448;8.612;2023-09-30T00:27:27;7.68;;;3.35;;
1106;SDS011;540;49.448;8.612;2023-09-30T00:29:56;5.72;;;2.92;;
1106;SDS011;540;49.448;8.612;2023-09-30T00:32:24;4.63;;;2.95;;
1106;SDS011;540;49.448;8.612;2023-09-30T00:34:52;7.22;;;2.90;;
1106;SDS011;540;49.448;8.612;2023-09-30T00:37:21;5.38;;;3.58;;
1106;SDS011;540;49.448;8.612;2023-09-30T00:39:48;5.55;;;2.88;;
1106;SDS011;540;49.448;8.612;2023-09-30T00:42:16;10.52;;;4.05;;
1106;SDS011;540;49.448;8.612;2023-09-30T00:44:44;6.45;;;3.38;;
1106;SDS011;540;49.448;8.612;2023-09-30T00:47:13;10.57;;;3.65;;
1106;SDS011;540;49.448;8.612;2023-09-30T00:49:42;5.18;;;2.92;;
1106;SDS011;540;49.448;8.612;2023-09-30T00:52:10;7.43;;;2.60;;
1106;SDS011;540;49.448;8.612;2023-09-30T00:54:38;8.45;;;3.15;;
1106;SDS011;540;49.448;8.612;2023-09-30T00:57:07;7.22;;;3.00;;
1106;SDS011;540;49.448;8.612;2023-09-30T00:59:35;6.40;;;3.38;;
1106;SDS011;540;49.448;8.612;2023-09-30T01:02:03;5.53;;;2.70;;
1106;SDS011;540;49.448;8.612;2023-09-30T01:04:34;5.53;;;3.00;;
1106;SDS011;540;49.448;8.612;2023-09-30T01:07:02;6.03;;;2.95;;
1106;SDS011;540;49.448;8.612;2023-09-30T01:09:31;6.38;;;2.80;;
1106;SDS011;540;49.448;8.612;2023-09-30T01:12:00;4.97;;;2.80;;
1106;SDS011;540;49.448;8.612;2023-09-30T01:14:29;5.32;;;3.08;;
1106;SDS011;540;49.448;8.612;2023-09-30T01:16:57;5.75;;;3.10;;
1106;SDS011;540;49.448;8.612;2023-09-30T01:19:25;6.05;;;3.08;;
1106;SDS011;540;49.448;8.612;2023-09-30T01:21:55;5.00;;;2.70;;
1106;SDS011;540;49.448;8.612;2023-09-30T01:24:25;5.88;;;3.15;;
1106;SDS011;540;49.448;8.612;2023-09-30T01:26:53;7.50;;;3.60;;
1106;SDS011;540;49.448;8.612;2023-09-30T01:29:21;7.57;;;3.22;;
1106;SDS011;540;49.448;8.612;2023-09-30T01:31:51;6.20;;;2.90;;
1106;SDS011;540;49.448;8.612;2023-09-30T01:34:20;6.25;;;3.13;;
1106;SDS011;540;49.448;8.612;2023-09-30T01:36:48;7.50;;;3.22;;
1106;SDS011;540;49.448;8.612;2023-09-30T01:39:17;6.10;;;3.40;;
1106;SDS011;540;49.448;8.612;2023-09-30T01:41:45;4.20;;;3.45;;
1106;SDS011;540;49.448;8.612;2023-09-30T01:44:12;7.72;;;3.80;;
1106;SDS011;540;49.448;8.612;2023-09-30T01:46:40;4.10;;;2.72;;
1106;SDS011;540;49.448;8.612;2023-09-30T01:49:08;10.52;;;3.60;;
1106;SDS011;540;49.448;8.612;2023-09-30T01:51:36;5.57;;;3.20;;
1106;SDS011;540;49.448;8.612;2023-09-30T01:54:04;7.13;;;3.47;;
1106;SDS011;540;49.448;8.612;2023-09-30T01:56:34;5.97;;;3.95;;
1106;SDS011;540;49.448;8.612;2023-09-30T01:59:02;5.88;;;3.13;;
1106;SDS011;540;49.448;8.612;2023-09-30T02:01:30;5.05;;;3.55;;
1106;SDS011;540;49.448;8.612;2023-09-30T02:03:58;8.13;;;3.15;;
1106;SDS011;540;49.448;8.612;2023-09-30T02:06:26;5.40;;;3.22;;
1106;SDS011;540;49.448;8.612;2023-09-30T02:08:54;8.00;;;3.17;;
1106;SDS011;540;49.448;8.612;2023-09-30T02:11:22;4.90;;;2.75;;
1106;SDS011;540;49.448;8.612;2023-09-30T02:13:51;6.30;;;2.63;;
1106;SDS011;540;49.448;8.612;2023-09-30T02:16:19;8.00;;;2.70;;
1106;SDS011;540;49.448;8.612;2023-09-30T02:18:47;5.18;;;3.00;;
1106;SDS011;540;49.448;8.612;2023-09-30T02:21:18;7.22;;;2.95;;
1106;SDS011;540;49.448;8.612;2023-09-30T02:23:47;6.47;;;3.05;;
1106;SDS011;540;49.448;8.612;2023-09-30T02:26:15;6.63;;;2.45;;
1106;SDS011;540;49.448;8.612;2023-09-30T02:28:43;6.97;;;2.90;;
1106;SDS011;540;49.448;8.612;2023-09-30T02:31:12;9.70;;;3.10;;
1106;SDS011;540;49.448;8.612;2023-09-30T02:33:40;7.03;;;3.03;;
1106;SDS011;540;49.448;8.612;2023-09-30T02:36:09;10.30;;;3.40;;
1106;SDS011;540;49.448;8.612;2023-09-30T02:38:39;7.32;;;3.35;;
1106;SDS011;540;49.448;8.612;2023-09-30T02:41:07;6.55;;;3.33;;
1106;SDS011;540;49.448;8.612;2023-09-30T02:43:35;4.18;;;2.70;;
1106;SDS011;540;49.448;8.612;2023-09-30T02:46:04;8.98;;;3.85;;
1106;SDS011;540;49.448;8.612;2023-09-30T02:48:33;7.03;;;3.08;;
1106;SDS011;540;49.448;8.612;2023-09-30T02:51:01;5.03;;;3.08;;
1106;SDS011;540;49.448;8.612;2023-09-30T02:53:29;5.40;;;2.95;;
1106;SDS011;540;49.448;8.612;2023-09-30T02:55:57;7.88;;;3.35;;
1106;SDS011;540;49.448;8.612;2023-09-30T02:58:26;7.95;;;3.63;;
1106;SDS011;540;49.448;8.612;2023-09-30T03:00:55;7.40;;;3.95;;
1106;SDS011;540;49.448;8.612;2023-09-30T03:03:23;7.57;;;3.95;;
1106;SDS011;540;49.448;8.612;2023-09-30T03:05:53;9.02;;;3.08;;
1106;SDS011;540;49.448;8.612;2023-09-30T03:08:21;5.55;;;3.67;;
1106;SDS011;540;49.448;8.612;2023-09-30T03:10:51;4.20;;;3.33;;
1106;SDS011;540;49.448;8.612;2023-09-30T03:13:19;6.00;;;3.28;;
1106;SDS011;540;49.448;8.612;2023-09-30T03:15:48;8.15;;;4.03;;
1106;SDS011;540;49.448;8.612;2023-09-30T03:18:18;8.10;;;3.67;;
1106;SDS011;540;49.448;8.612;2023-09-30T03:20:50;7.95;;;3.58;;
1106;SDS011;540;49.448;8.612;2023-09-30T03:23:23;8.30;;;4.13;;
1106;SDS011;540;49.448;8.612;2023-09-30T03:25:55;8.82;;;3.90;;
1106;SDS011;540;49.448;8.612;2023-09-30T03:28:23;4.75;;;3.22;;
1106;SDS011;540;49.448;8.612;2023-09-30T03:30:51;7.88;;;3.42;;
1106;SDS011;540;49.448;8.612;2023-09-30T03:33:19;6.47;;;3.97;;
1106;SDS011;540;49.448;8.612;2023-09-30T03:35:47;9.13;;;4.07;;
1106;SDS011;540;49.448;8.612;2023-09-30T03:38:15;10.60;;;4.47;;
1106;SDS011;540;49.448;8.612;2023-09-30T03:40:45;8.40;;;3.88;;
1106;SDS011;540;49.448;8.612;2023-09-30T03:43:15;11.13;;;3.65;;
1106;SDS011;540;49.448;8.612;2023-09-30T03:45:43;6.65;;;3.63;;
1106;SDS011;540;49.448;8.612;2023-09-30T03:48:11;7.32;;;3.67;;
1106;SDS011;540;49.448;8.612;2023-09-30T03:50:39;8.93;;;3.72;;
1106;SDS011;540;49.448;8.612;2023-09-30T03:53:07;8.65;;;4.20;;
1106;SDS011;540;49.448;8.612;2023-09-30T03:55:35;6.55;;;3.50;;
1106;SDS011;540;49.448;8.612;2023-09-30T03:58:05;8.07;;;3.78;;
1106;SDS011;540;49.448;8.612;2023-09-30T04:00:33;6.10;;;3.92;;
1106;SDS011;540;49.448;8.612;2023-09-30T04:03:02;6.70;;;4.15;;
1106;SDS011;540;49.448;8.612;2023-09-30T04:05:30;8.38;;;4.60;;
1106;SDS011;540;49.448;8.612;2023-09-30T04:08:03;8.10;;;4.00;;
1106;SDS011;540;49.448;8.612;2023-09-30T04:10:31;9.48;;;4.20;;
1106;SDS011;540;49.448;8.612;2023-09-30T04:12:59;8.15;;;4.45;;
1106;SDS011;540;49.448;8.612;2023-09-30T04:15:28;14.43;;;4.80;;
1106;SDS011;540;49.448;8.612;2023-09-30T04:17:57;9.48;;;4.85;;
1106;SDS011;540;49.448;8.612;2023-09-30T04:20:25;7.35;;;4.60;;
1106;SDS011;540;49.448;8.612;2023-09-30T04:22:53;8.52;;;4.68;;
1106;SDS011;540;49.448;8.612;2023-09-30T04:25:24;9.30;;;4.22;;
1106;SDS011;540;49.448;8.612;2023-09-30T04:27:52;8.43;;;4.82;;
1106;SDS011;540;49.448;8.612;2023-09-30T04:30:20;10.23;;;5.53;;
1106;SDS011;540;49.448;8.612;2023-09-30T04:32:50;8.45;;;5.40;;
1106;SDS011;540;49.448;8.612;2023-09-30T04:35:19;10.52;;;5.28;;
1106;SDS011;540;49.448;8.612;2023-09-30T04:37:48;11.63;;;6.40;;
1106;SDS011;540;49.448;8.612;2023-09-30T04:40:17;11.32;;;5.22;;
1106;SDS011;540;49.448;8.612;2023-09-30T04:42:47;8.45;;;5.65;;
1106;SDS011;540;49.448;8.612;2023-09-30T04:45:16;10.52;;;6.07;;
1106;SDS011;540;49.448;8.612;2023-09-30T04:47:46;11.82;;;6.38;;
1106;SDS011;540;49.448;8.612;2023-09-30T04:50:17;11.80;;;7.47;;
1106;SDS011;540;49.448;8.612;2023-09-30T04:52:48;14.55;;;8.73;;
1106;SDS011;540;49.448;8.612;2023-09-30T04:55:16;11.55;;;7.20;;
1106;SDS011;540;49.448;8.612;2023-09-30T04:57:45;10.77;;;5.55;;
1106;SDS011;540;49.448;8.612;2023-09-30T05:00:14;13.90;;;6.10;;
1106;SDS011;540;49.448;8.612;2023-09-30T05:02:44;14.55;;;7.22;;
1106;SDS011;540;49.448;8.612;2023-09-30T05:05:13;15.77;;;8.65;;
1106;SDS011;540;49.448;8.612;2023-09-30T05:07:43;24.58;;;10.90;;
1106;SDS011;540;49.448;8.612;2023-09-30T05:10:12;14.63;;;7.72;;
1106;SDS011;540;49.448;8.612;2023-09-30T05:12:42;13.52;;;7.93;;
1106;SDS011;540;49.448;8.612;2023-09-30T05:15:14;13.70;;;8.52;;
1106;SDS011;540;49.448;8.612;2023-09-30T05:17:43;17.27;;;8.98;;
1106;SDS011;540;49.448;8.612;2023-09-30T05:20:12;14.32;;;7.55;;
1106;SDS011;540;49.448;8.612;2023-09-30T05:22:44;14.15;;;7.82;;
1106;SDS011;540;49.448;8.612;2023-09-30T05:25:13;19.85;;;10.07;;
1106;SDS011;540;49.448;8.612;2023-09-30T05:27:42;15.50;;;7.97;;
1106;SDS011;540;49.448;8.612;2023-09-30T05:30:10;13.73;;;8.32;;
1106;SDS011;540;49.448;8.612;2023-09-30T05:32:41;16.67;;;7.45;;
1106;SDS011;540;49.448;8.612;2023-09-30T05:35:09;14.50;;;8.13;;
1106;SDS011;540;49.448;8.612;2023-09-30T05:37:40;12.32;;;6.57;;
1106;SDS011;540;49.448;8.612;2023-09-30T05:40:10;14.82;;;6.95;;
1106;SDS011;540;49.448;8.612;2023-09-30T05:42:46;12.32;;;6.63;;
1106;SDS011;540;49.448;8.612;2023-09-30T05:45:14;11.50;;;6.75;;
1106;SDS011;540;49.448;8.612;2023-09-30T05:47:42;13.07;;;6.45;;
1106;SDS011;540;49.448;8.612;2023-09-30T05:50:14;11.32;;;5.53;;
1106;SDS011;540;49.448;8.612;2023-09-30T05:52:42;9.00;;;5.32;;
1106;SDS011;540;49.448;8.612;2023-09-30T05:55:12;10.95;;;7.38;;
1106;SDS011;540;49.448;8.612;2023-09-30T05:57:41;9.88;;;6.05;;
1106;SDS011;540;49.448;8.612;2023-09-30T06:00:11;10.52;;;6.47;;
1106;SDS011;540;49.448;8.612;2023-09-30T06:02:46;9.55;;;5.82;;
1106;SDS011;540;49.448;8.612;2023-09-30T06:05:14;12.25;;;6.05;;
1106;SDS011;540;49.448;8.612;2023-09-30T06:07:45;10.07;;;5.47;;
1106;SDS011;540;49.448;8.612;2023-09-30T06:10:14;8.70;;;6.10;;
1106;SDS011;540;49.448;8.612;2023-09-30T06:12:45;12.70;;;6.00;;
1106;SDS011;540;49.448;8.612;2023-09-30T06:15:13;9.48;;;6.30;;
1106;SDS011;540;49.448;8.612;2023-09-30T06:17:48;9.65;;;5.93;;
1106;SDS011;540;49.448;8.612;2023-09-30T06:20:18;12.77;;;6.22;;
1106;SDS011;540;49.448;8.612;2023-09-30T06:22:48;12.70;;;7.35;;
1106;SDS011;540;49.448;8.612;2023-09-30T06:25:17;11.00;;;6.97;;
1106;SDS011;540;49.448;8.612;2023-09-30T06:27:46;10.85;;;6.60;;
1106;SDS011;540;49.448;8.612;2023-09-30T06:30:14;9.02;;;6.13;;
1106;SDS011;540;49.448;8.612;2023-09-30T06:32:43;9.05;;;6.53;;
1106;SDS011;540;49.448;8.612;2023-09-30T06:35:12;15.50;;;6.65;;
1106;SDS011;540;49.448;8.612;2023-09-30T06:37:40;12.93;;;7.00;;
1106;SDS011;540;49.448;8.612;2023-09-30T06:40:09;11.07;;;6.22;;
1106;SDS011;540;49.448;8.612;2023-09-30T06:42:40;10.30;;;6.22;;
1106;SDS011;540;49.448;8.612;2023-09-30T06:45:09;11.52;;;5.60;;
1106;SDS011;540;49.448;8.612;2023-09-30T06:47:39;11.95;;;5.90;;
1106;SDS011;540;49.448;8.612;2023-09-30T06:50:09;7.70;;;5.68;;
1106;SDS011;540;49.448;8.612;2023-09-30T06:52:39;16.05;;;6.50;;
1106;SDS011;540;49.448;8.612;2023-09-30T06:55:09;11.85;;;5.97;;
1106;SDS011;540;49.448;8.612;2023-09-30T06:57:41;13.07;;;6.15;;
1106;SDS011;540;49.448;8.612;2023-09-30T07:00:10;8.70;;;5.50;;
1106;SDS011;540;49.448;8.612;2023-09-30T07:02:40;13.80;;;6.38;;
1106;SDS011;540;49.448;8.612;2023-09-30T07:05:09;11.07;;;7.15;;
1106;SDS011;540;49.448;8.612;2023-09-30T07:07:38;8.80;;;5.40;;
1106;SDS011;540;49.448;8.612;2023-09-30T07:10:07;11.93;;;6.47;;
1106;SDS011;540;49.448;8.612;2023-09-30T07:12:35;11.88;;;5.90;;
1106;SDS011;540;49.448;8.612;2023-09-30T07:15:05;10.30;;;5.53;;
1106;SDS011;540;49.448;8.612;2023-09-30T07:17:34;10.77;;;4.40;;
1106;SDS011;540;49.448;8.612;2023-09-30T07:20:03;8.10;;;4.95;;
1106;SDS011;540;49.448;8.612;2023-09-30T07:22:32;9.68;;;4.38;;
1106;SDS011;540;49.448;8.612;2023-09-30T07:25:20;10.02;;;4.50;;
1106;SDS011;540;49.448;8.612;2023-09-30T07:27:48;11.35;;;3.80;;
1106;SDS011;540;49.448;8.612;2023-09-30T07:30:18;9.15;;;3.35;;
1106;SDS011;540;49.448;8.612;2023-09-30T07:32:46;10.02;;;3.28;;
1106;SDS011;540;49.448;8.612;2023-09-30T07:35:14;10.20;;;3.85;;
1106;SDS011;540;49.448;8.612;2023-09-30T07:37:42;9.30;;;3.63;;
1106;SDS011;540;49.448;8.612;2023-09-30T07:40:11;8.52;;;3.65;;
1106;SDS011;540;49.448;8.612;2023-09-30T07:42:39;6.68;;;3.53;;
1106;SDS011;540;49.448;8.612;2023-09-30T07:45:08;7.32;;;3.45;;
1106;SDS011;540;49.448;8.612;2023-09-30T07:47:38;11.07;;;3.60;;
1106;SDS011;540;49.448;8.612;2023-09-30T07:50:07;7.75;;;3.97;;
1106;SDS011;540;49.448;8.612;2023-09-30T07:52:36;8.10;;;4.40;;
1106;SDS011;540;49.448;8.612;2023-09-30T07:55:05;8.68;;;4.40;;
1106;SDS011;540;49.448;8.612;2023-09-30T07:57:35;9.20;;;3.85;;
1106;SDS011;540;49.448;8.612;2023-09-30T08:00:03;9.15;;;3.80;;
1106;SDS011;540;49.448;8.612;2023-09-30T08:02:36;9.10;;;3.33;;
1106;SDS011;540;49.448;8.612;2023-09-30T08:05:07;7.38;;;3.20;;
1106;SDS011;540;49.448;8.612;2023-09-30T08:07:37;4.78;;;3.00;;
1106;SDS011;540;49.448;8.612;2023-09-30T08:10:06;9.15;;;3.05;;
1106;SDS011;540;49.448;8.612;2023-09-30T08:12:40;10.60;;;3.83;;
1106;SDS011;540;49.448;8.612;2023-09-30T08:15:11;5.07;;;3.20;;
1106;SDS011;540;49.448;8.612;2023-09-30T08:17:41;16.60;;;4.45;;
1106;SDS011;540;49.448;8.612;2023-09-30T08:20:11;8.95;;;3.42;;
1106;SDS011;540;49.448;8.612;2023-09-30T08:22:40;5.53;;;2.90;;
1106;SDS011;540;49.448;8.612;2023-09-30T08:25:10;10.82;;;3.40;;
1106;SDS011;540;49.448;8.612;2023-09-30T08:27:39;14.98;;;4.05;;
1106;SDS011;540;49.448;8.612;2023-09-30T08:30:09;14.52;;;4.03;;
1106;SDS011;540;49.448;8.612;2023-09-30T08:32:38;7.95;;;2.63;;
1106;SDS011;540;49.448;8.612;2023-09-30T08:35:08;5.90;;;2.53;;
1106;SDS011;540;49.448;8.612;2023-09-30T08:37:38;6.15;;;2.58;;
1106;SDS011;540;49.448;8.612;2023-09-30T08:40:07;6.55;;;3.15;;
1106;SDS011;540;49.448;8.612;2023-09-30T08:42:38;4.20;;;2.38;;
1106;SDS011;540;49.448;8.612;2023-09-30T08:45:08;6.45;;;2.50;;
1106;SDS011;540;49.448;8.612;2023-09-30T08:47:40;4.03;;;2.63;;
1106;SDS011;540;49.448;8.612;2023-09-30T08:50:09;8.68;;;3.20;;
1106;SDS011;540;49.448;8.612;2023-09-30T08:52:40;6.95;;;2.80;;
1106;SDS011;540;49.448;8.612;2023-09-30T08:55:09;6.72;;;2.90;;
1106;SDS011;540;49.448;8.612;2023-09-30T08:57:39;4.57;;;2.33;;
1106;SDS011;540;49.448;8.612;2023-09-30T09:00:09;5.55;;;2.95;;
1106;SDS011;540;49.448;8.612;2023-09-30T09:02:39;7.80;;;2.97;;
1106;SDS011;540;49.448;8.612;2023-09-30T09:05:07;5.18;;;2.85;;
1106;SDS011;540;49.448;8.612;2023-09-30T09:07:37;5.13;;;2.53;;
1106;SDS011;540;49.448;8.612;2023-09-30T09:10:09;5.28;;;3.10;;
1106;SDS011;540;49.448;8.612;2023-09-30T09:12:39;5.47;;;2.90;;
1106;SDS011;540;49.448;8.612;2023-09-30T09:15:20;8.38;;;2.53;;
1106;SDS011;540;49.448;8.612;2023-09-30T09:17:50;7.18;;;2.50;;
1106;SDS011;540;49.448;8.612;2023-09-30T09:20:19;7.60;;;2.70;;
1106;SDS011;540;49.448;8.612;2023-09-30T09:22:50;4.40;;;2.40;;
1106;SDS011;540;49.448;8.612;2023-09-30T09:25:20;5.85;;;2.45;;
1106;SDS011;540;49.448;8.612;2023-09-30T09:27:50;8.38;;;3.05;;
1106;SDS011;540;49.448;8.612;2023-09-30T09:30:20;7.88;;;3.22;;
1106;SDS011;540;49.448;8.612;2023-09-30T09:32:53;4.82;;;2.97;;
1106;SDS011;540;49.448;8.612;2023-09-30T09:35:21;8.68;;;4.50;;
1106;SDS011;540;49.448;8.612;2023-09-30T09:37:57;7.82;;;2.83;;
1106;SDS011;540;49.448;8.612;2023-09-30T09:40:27;5.22;;;2.92;;
1106;SDS011;540;49.448;8.612;2023-09-30T09:42:56;6.28;;;3.20;;
1106;SDS011;540;49.448;8.612;2023-09-30T09:45:26;6.15;;;3.65;;
1106;SDS011;540;49.448;8.612;2023-09-30T09:47:54;6.03;;;3.65;;
1106;SDS011;540;49.448;8.612;2023-09-30T09:50:22;9.52;;;3.70;;
1106;SDS011;540;49.448;8.612;2023-09-30T09:52:51;8.82;;;3.45;;
1106;SDS011;540;49.448;8.612;2023-09-30T09:55:22;11.23;;;5.53;;
1106;SDS011;540;49.448;8.612;2023-09-30T09:57:51;6.93;;;3.80;;
1106;SDS011;540;49.448;8.612;2023-09-30T10:00:19;7.22;;;4.05;;
1106;SDS011;540;49.448;8.612;2023-09-30T10:02:50;7.43;;;3.42;;
1106;SDS011;540;49.448;8.612;2023-09-30T10:05:19;6.13;;;3.88;;
1106;SDS011;540;49.448;8.612;2023-09-30T10:07:50;8.80;;;3.95;;
1106;SDS011;540;49.448;8.612;2023-09-30T10:10:22;10.65;;;5.15;;
1106;SDS011;540;49.448;8.612;2023-09-30T10:12:51;18.30;;;6.68;;
1106;SDS011;540;49.448;8.612;2023-09-30T10:15:35;8.02;;;3.50;;
1106;SDS011;540;49.448;8.612;2023-09-30T10:18:06;7.07;;;3.53;;
1106;SDS011;540;49.448;8.612;2023-09-30T10:20:41;7.93;;;3.85;;
1106;SDS011;540;49.448;8.612;2023-09-30T10:23:17;10.20;;;4.43;;
1106;SDS011;540;49.448;8.612;2023-09-30T10:25:48;10.27;;;4.60;;
1106;SDS011;540;49.448;8.612;2023-09-30T10:31:11;6.57;;;3.83;;
1106;SDS011;540;49.448;8.612;2023-09-30T10:36:45;8.27;;;3.88;;
1106;SDS011;540;49.448;8.612;2023-09-30T10:39:14;10.88;;;4.15;;
1106;SDS011;540;49.448;8.612;2023-09-30T10:41:51;9.38;;;4.53;;
1106;SDS011;540;49.448;8.612;2023-09-30T10:44:34;7.03;;;4.35;;
1106;SDS011;540;49.448;8.612;2023-09-30T10:50:02;8.55;;;4.35;;
1106;SDS011;540;49.448;8.612;2023-09-30T10:52:31;9.18;;;4.13;;
1106;SDS011;540;49.448;8.612;2023-09-30T10:55:02;10.70;;;5.25;;
1106;SDS011;540;49.448;8.612;2023-09-30T10:57:33;6.35;;;3.33;;
1106;SDS011;540;49.448;8.612;2023-09-30T11:00:07;8.10;;;4.63;;
1106;SDS011;540;49.448;8.612;2023-09-30T11:02:47;11.68;;;6.85;;
1106;SDS011;540;49.448;8.612;2023-09-30T11:05:17;8.13;;;4.22;;
1106;SDS011;540;49.448;8.612;2023-09-30T11:08:01;8.10;;;4.72;;
1106;SDS011;540;49.448;8.612;2023-09-30T11:10:30;16.23;;;6.95;;
1106;SDS011;540;49.448;8.612;2023-09-30T11:12:59;9.95;;;4.40;;
1106;SDS011;540;49.448;8.612;2023-09-30T11:15:27;9.82;;;4.45;;
1106;SDS011;540;49.448;8.612;2023-09-30T11:18:12;10.98;;;5.05;;
1106;SDS011;540;49.448;8.612;2023-09-30T11:20:41;16.50;;;6.10;;
1106;SDS011;540;49.448;8.612;2023-09-30T11:23:09;11.70;;;6.28;;
1106;SDS011;540;49.448;8.612;2023-09-30T11:25:37;10.68;;;5.93;;
1106;SDS011;540;49.448;8.612;2023-09-30T11:28:13;9.90;;;4.93;;
1106;SDS011;540;49.448;8.612;2023-09-30T11:30:54;9.35;;;4.05;;
1106;SDS011;540;49.448;8.612;2023-09-30T11:33:23;9.00;;;4.75;;
1106;SDS011;540;49.448;8.612;2023-09-30T11:35:59;11.85;;;5.43;;
1106;SDS011;540;49.448;8.612;2023-09-30T11:38:29;11.45;;;4.40;;
1106;SDS011;540;49.448;8.612;2023-09-30T11:40:58;9.90;;;4.38;;
1106;SDS011;540;49.448;8.612;2023-09-30T11:43:29;8.75;;;4.10;;
1106;SDS011;540;49.448;8.612;2023-09-30T11:46:04;11.93;;;5.22;;
1106;SDS011;540;49.448;8.612;2023-09-30T11:48:35;12.10;;;6.25;;
1106;SDS011;540;49.448;8.612;2023-09-30T11:51:03;10.23;;;4.88;;
1106;SDS011;540;49.448;8.612;2023-09-30T11:53:32;7.22;;;4.05;;
1106;SDS011;540;49.448;8.612;2023-09-30T11:56:02;8.52;;;4.70;;
1106;SDS011;540;49.448;8.612;2023-09-30T11:58:32;9.20;;;3.83;;
1106;SDS011;540;49.448;8.612;2023-09-30T12:01:00;7.45;;;4.10;;
1106;SDS011;540;49.448;8.612;2023-09-30T12:03:28;8.35;;;4.07;;
1106;SDS011;540;49.448;8.612;2023-09-30T12:05:57;9.80;;;4.25;;
1106;SDS011;540;49.448;8.612;2023-09-30T12:08:26;6.57;;;3.78;;
1106;SDS011;540;49.448;8.612;2023-09-30T12:10:55;9.68;;;4.65;;
1106;SDS011;540;49.448;8.612;2023-09-30T12:13:23;9.65;;;4.60;;
1106;SDS011;540;49.448;8.612;2023-09-30T12:15:52;13.18;;;4.97;;
1106;SDS011;540;49.448;8.612;2023-09-30T12:18:20;7.57;;;4.10;;
1106;SDS011;540;49.448;8.612;2023-09-30T12:20:50;7.32;;;3.95;;
1106;SDS011;540;49.448;8.612;2023-09-30T12:23:18;6.97;;;3.40;;
1106;SDS011;540;49.448;8.612;2023-09-30T12:25:46;8.20;;;3.50;;
1106;SDS011;540;49.448;8.612;2023-09-30T12:28:34;8.00;;;4.25;;
1106;SDS011;540;49.448;8.612;2023-09-30T12:31:03;8.20;;;3.30;;
1106;SDS011;540;49.448;8.612;2023-09-30T12:33:31;7.50;;;4.25;;
1106;SDS011;540;49.448;8.612;2023-09-30T12:35:59;7.53;;;4.22;;
1106;SDS011;540;49.448;8.612;2023-09-30T12:38:28;10.48;;;4.32;;
1106;SDS011;540;49.448;8.612;2023-09-30T12:40:56;11.25;;;4.60;;
1106;SDS011;540;49.448;8.612;2023-09-30T12:43:24;8.85;;;5.00;;
1106;SDS011;540;49.448;8.612;2023-09-30T12:45:52;9.85;;;5.35;;
1106;SDS011;540;49.448;8.612;2023-09-30T12:48:22;10.65;;;4.38;;
1106;SDS011;540;49.448;8.612;2023-09-30T12:50:49;8.95;;;3.90;;
1106;SDS011;540;49.448;8.612;2023-09-30T12:53:17;10.20;;;4.50;;
1106;SDS011;540;49.448;8.612;2023-09-30T12:55:45;10.00;;;4.50;;
1106;SDS011;540;49.448;8.612;2023-09-30T12:58:13;8.02;;;4.05;;
1106;SDS011;540;49.448;8.612;2023-09-30T13:00:41;8.48;;;4.20;;
1106;SDS011;540;49.448;8.612;2023-09-30T13:03:09;8.55;;;4.03;;
1106;SDS011;540;49.448;8.612;2023-09-30T13:05:40;7.05;;;3.67;;
1106;SDS011;540;49.448;8.612;2023-09-30T13:08:09;10.73;;;4.57;;
1106;SDS011;540;49.448;8.612;2023-09-30T13:10:37;10.32;;;4.80;;
1106;SDS011;540;49.448;8.612;2023-09-30T13:13:05;9.35;;;4.43;;
1106;SDS011;540;49.448;8.612;2023-09-30T13:15:33;8.57;;;4.80;;
1106;SDS011;540;49.448;8.612;2023-09-30T13:18:01;10.82;;;4.72;;
1106;SDS011;540;49.448;8.612;2023-09-30T13:20:30;10.68;;;4.63;;
1106;SDS011;540;49.448;8.612;2023-09-30T13:22:59;9.45;;;4.40;;
1106;SDS011;540;49.448;8.612;2023-09-30T13:25:29;8.45;;;4.53;;
1106;SDS011;540;49.448;8.612;2023-09-30T13:27:57;12.25;;;4.93;;
1106;SDS011;540;49.448;8.612;2023-09-30T13:30:25;9.15;;;4.20;;
1106;SDS011;540;49.448;8.612;2023-09-30T13:32:52;8.45;;;5.07;;
1106;SDS011;540;49.448;8.612;2023-09-30T13:35:20;9.10;;;4.32;;
1106;SDS011;540;49.448;8.612;2023-09-30T13:37:48;8.55;;;3.90;;
1106;SDS011;540;49.448;8.612;2023-09-30T13:40:17;8.45;;;3.80;;
1106;SDS011;540;49.448;8.612;2023-09-30T13:42:47;11.13;;;4.25;;
1106;SDS011;540;49.448;8.612;2023-09-30T13:45:15;13.70;;;5.85;;
1106;SDS011;540;49.448;8.612;2023-09-30T13:47:43;8.18;;;4.07;;
1106;SDS011;540;49.448;8.612;2023-09-30T13:50:11;10.18;;;4.43;;
1106;SDS011;540;49.448;8.612;2023-09-30T13:52:40;7.78;;;3.92;;
1106;SDS011;540;49.448;8.612;2023-09-30T13:55:08;9.43;;;3.90;;
1106;SDS011;540;49.448;8.612;2023-09-30T13:57:37;8.50;;;4.80;;
1106;SDS011;540;49.448;8.612;2023-09-30T14:00:07;10.73;;;4.60;;
1106;SDS011;540;49.448;8.612;2023-09-30T14:02:36;11.77;;;4.25;;
1106;SDS011;540;49.448;8.612;2023-09-30T14:05:05;8.73;;;4.47;;
1106;SDS011;540;49.448;8.612;2023-09-30T14:07:34;7.03;;;4.20;;
1106;SDS011;540;49.448;8.612;2023-09-30T14:10:02;6.80;;;3.67;;
1106;SDS011;540;49.448;8.612;2023-09-30T14:12:31;9.15;;;3.95;;
1106;SDS011;540;49.448;8.612;2023-09-30T14:15:02;11.38;;;5.10;;
1106;SDS011;540;49.448;8.612;2023-09-30T14:17:31;9.90;;;4.53;;
1106;SDS011;540;49.448;8.612;2023-09-30T14:20:01;8.98;;;4.85;;
1106;SDS011;540;49.448;8.612;2023-09-30T14:22:31;10.48;;;4.63;;
1106;SDS011;540;49.448;8.612;2023-09-30T14:24:59;9.98;;;4.22;;
1106;SDS011;540;49.448;8.612;2023-09-30T14:27:27;10.30;;;4.43;;
1106;SDS011;540;49.448;8.612;2023-09-30T14:29:55;8.73;;;4.40;;
1106;SDS011;540;49.448;8.612;2023-09-30T14:32:25;7.45;;;4.00;;
1106;SDS011;540;49.448;8.612;2023-09-30T14:34:53;8.98;;;4.10;;
1106;SDS011;540;49.448;8.612;2023-09-30T14:37:21;8.73;;;4.00;;
1106;SDS011;540;49.448;8.612;2023-09-30T14:39:49;10.25;;;4.35;;
1106;SDS011;540;49.448;8.612;2023-09-30T14:42:17;8.30;;;3.47;;
1106;SDS011;540;49.448;8.612;2023-09-30T14:44:45;8.20;;;3.47;;
1106;SDS011;540;49.448;8.612;2023-09-30T14:47:12;6.93;;;3.55;;
1106;SDS011;540;49.448;8.612;2023-09-30T14:49:42;9.52;;;3.70;;
1106;SDS011;540;49.448;8.612;2023-09-30T14:52:10;8.68;;;3.97;;
1106;SDS011;540;49.448;8.612;2023-09-30T14:54:38;8.60;;;4.10;;
1106;SDS011;540;49.448;8.612;2023-09-30T14:57:06;7.63;;;3.92;;
1106;SDS011;540;49.448;8.612;2023-09-30T14:59:34;10.43;;;4.38;;
1106;SDS011;540;49.448;8.612;2023-09-30T15:02:02;12.85;;;5.22;;
1106;SDS011;540;49.448;8.612;2023-09-30T15:04:30;7.32;;;3.83;;
1106;SDS011;540;49.448;8.612;2023-09-30T15:07:00;7.88;;;3.72;;
1106;SDS011;540;49.448;8.612;2023-09-30T15:09:29;10.35;;;4.93;;
1106;SDS011;540;49.448;8.612;2023-09-30T15:11:56;9.02;;;4.38;;
1106;SDS011;540;49.448;8.612;2023-09-30T15:14:24;8.63;;;3.33;;
1106;SDS011;540;49.448;8.612;2023-09-30T15:16:52;8.38;;;3.72;;
1106;SDS011;540;49.448;8.612;2023-09-30T15:19:20;9.45;;;3.92;;
1106;SDS011;540;49.448;8.612;2023-09-30T15:21:48;8.10;;;3.75;;
1106;SDS011;540;49.448;8.612;2023-09-30T15:24:17;10.50;;;4.05;;
1106;SDS011;540;49.448;8.612;2023-09-30T15:26:45;6.55;;;3.70;;
1106;SDS011;540;49.448;8.612;2023-09-30T15:29:13;7.85;;;3.47;;
1106;SDS011;540;49.448;8.612;2023-09-30T15:31:42;7.55;;;3.50;;
1106;SDS011;540;49.448;8.612;2023-09-30T15:34:09;9.30;;;4.10;;
1106;SDS011;540;49.448;8.612;2023-09-30T15:36:42;10.90;;;4.22;;
1106;SDS011;540;49.448;8.612;2023-09-30T15:39:10;7.65;;;3.38;;
1106;SDS011;540;49.448;8.612;2023-09-30T15:41:40;11.35;;;4.20;;
1106;SDS011;540;49.448;8.612;2023-09-30T15:44:08;10.38;;;4.00;;
1106;SDS011;540;49.448;8.612;2023-09-30T15:46:36;10.23;;;4.15;;